createdAt,value
2018-07-26T00:00:43.422Z,3.83
2018-07-26T00:03:14.771Z,4.03
2018-07-26T00:05:49.554Z,3.10
2018-07-26T00:08:22.526Z,3.80
2018-07-26T00:10:56.030Z,3.37
2018-07-26T00:13:31.410Z,4.00
2018-07-26T00:16:07.306Z,4.20
2018-07-26T00:18:38.242Z,3.47
2018-07-26T00:21:08.263Z,3.40
2018-07-26T00:23:37.998Z,3.73
2018-07-26T00:26:08.738Z,3.70
2018-07-26T00:28:40.234Z,3.10
2018-07-26T00:31:10.226Z,3.60
2018-07-26T00:33:40.086Z,3.53
2018-07-26T00:36:11.150Z,3.10
2018-07-26T00:38:43.354Z,3.60
2018-07-26T00:41:13.485Z,4.17
2018-07-26T00:43:43.470Z,2.87
2018-07-26T00:46:15.087Z,3.33
2018-07-26T00:48:45.075Z,2.83
2018-07-26T00:51:15.154Z,3.53
2018-07-26T00:53:44.938Z,3.83
2018-07-26T00:56:15.650Z,3.10
2018-07-26T00:58:46.326Z,3.97
2018-07-26T01:01:16.411Z,3.40
2018-07-26T01:03:46.339Z,3.90
2018-07-26T01:06:16.214Z,3.90
2018-07-26T01:08:45.994Z,3.60
2018-07-26T01:11:16.646Z,4.07
2018-07-26T01:13:47.278Z,3.17
2018-07-26T01:16:17.126Z,4.00
2018-07-26T01:18:47.566Z,3.23
2018-07-26T01:21:17.270Z,3.40
2018-07-26T01:23:47.338Z,3.40
2018-07-26T01:26:17.593Z,3.57
2018-07-26T01:28:48.601Z,3.33
2018-07-26T01:31:20.653Z,3.77
2018-07-26T01:33:50.654Z,3.70
2018-07-26T01:36:33.347Z,4.07
2018-07-26T01:39:04.766Z,5.10
2018-07-26T01:41:36.397Z,4.63
2018-07-26T01:44:22.165Z,4.60
2018-07-26T01:46:52.177Z,3.70
2018-07-26T01:49:26.118Z,3.30
2018-07-26T01:51:56.106Z,4.10
2018-07-26T01:54:25.817Z,4.37
2018-07-26T01:56:55.562Z,3.90
2018-07-26T01:59:27.286Z,4.87
2018-07-26T02:01:56.982Z,4.70
2018-07-26T02:04:26.650Z,4.20
2018-07-26T02:06:56.538Z,4.90
2018-07-26T02:09:28.570Z,4.60
2018-07-26T02:11:58.545Z,5.03
2018-07-26T02:14:35.006Z,5.10
2018-07-26T02:17:05.098Z,5.50
2018-07-26T02:19:35.062Z,5.67
2018-07-26T02:22:06.490Z,5.30
2018-07-26T02:24:37.218Z,5.17
2018-07-26T02:27:09.046Z,5.40
2018-07-26T02:29:42.746Z,5.90
2018-07-26T02:32:12.631Z,5.53
2018-07-26T02:34:45.582Z,5.00
2018-07-26T02:37:16.610Z,4.90
2018-07-26T02:39:46.362Z,5.00
2018-07-26T02:42:16.290Z,4.90
2018-07-26T02:44:46.362Z,4.80
2018-07-26T02:47:18.742Z,4.97
2018-07-26T02:49:52.782Z,5.07
2018-07-26T02:52:22.514Z,4.57
2018-07-26T02:54:53.553Z,6.00
2018-07-26T02:57:24.134Z,4.87
2018-07-26T02:59:54.462Z,5.87
2018-07-26T03:02:27.805Z,5.67
2018-07-26T03:05:00.754Z,5.13
2018-07-26T03:07:34.382Z,5.87
2018-07-26T03:10:04.733Z,5.77
2018-07-26T03:12:34.322Z,5.73
2018-07-26T03:15:07.660Z,4.70
2018-07-26T03:17:37.625Z,6.03
2018-07-26T03:20:13.225Z,5.50
2018-07-26T03:22:44.198Z,6.10
2018-07-26T03:25:14.306Z,7.00
2018-07-26T03:27:44.470Z,6.07
2018-07-26T03:30:18.808Z,5.80
2018-07-26T03:32:49.762Z,5.93
2018-07-26T03:35:19.782Z,5.20
2018-07-26T03:37:49.973Z,5.70
2018-07-26T03:40:20.699Z,5.50
2018-07-26T03:42:50.417Z,5.40
2018-07-26T03:45:21.030Z,5.33
2018-07-26T03:47:51.861Z,6.10
2018-07-26T03:50:22.725Z,5.80
2018-07-26T03:52:59.738Z,5.80
2018-07-26T03:55:29.669Z,5.50
2018-07-26T03:57:59.793Z,5.80
2018-07-26T04:00:35.477Z,6.30
2018-07-26T04:03:13.924Z,5.87
2018-07-26T04:05:44.961Z,6.13
2018-07-26T04:08:15.913Z,6.20
2018-07-26T04:10:45.893Z,6.27
2018-07-26T04:13:15.577Z,6.03
2018-07-26T04:15:45.346Z,6.10
2018-07-26T04:18:15.254Z,6.03
2018-07-26T04:20:45.889Z,5.93
2018-07-26T04:23:20.106Z,5.43
2018-07-26T04:25:55.174Z,6.23
2018-07-26T04:28:24.826Z,5.60
2018-07-26T04:30:54.690Z,6.33
2018-07-26T04:33:24.774Z,6.00
2018-07-26T04:35:54.738Z,6.30
2018-07-26T04:38:25.410Z,7.10
2018-07-26T04:40:56.030Z,7.27
2018-07-26T04:43:25.658Z,6.10
2018-07-26T04:46:00.079Z,6.67
2018-07-26T04:48:30.003Z,6.40
2018-07-26T04:50:59.886Z,6.10
2018-07-26T04:53:29.774Z,5.33
2018-07-26T04:56:00.708Z,4.87
2018-07-26T04:58:31.365Z,4.20
2018-07-26T05:01:02.249Z,5.00
2018-07-26T05:03:33.182Z,4.97
2018-07-26T05:06:15.234Z,4.47
2018-07-26T05:08:45.099Z,4.97
2018-07-26T05:11:14.817Z,5.13
2018-07-26T05:13:44.606Z,4.63
2018-07-26T05:16:14.554Z,4.20
2018-07-26T05:18:47.294Z,4.90
2018-07-26T05:21:17.109Z,5.13
2018-07-26T05:23:47.642Z,4.70
2018-07-26T05:26:19.386Z,4.50
2018-07-26T05:28:49.314Z,4.50
2018-07-26T05:31:27.058Z,4.03
2018-07-26T05:33:56.915Z,3.80
2018-07-26T05:36:26.886Z,4.00
2018-07-26T05:38:57.790Z,3.67
2018-07-26T05:41:28.994Z,4.60
2018-07-26T05:43:59.615Z,4.80
2018-07-26T05:46:30.542Z,4.33
2018-07-26T05:49:02.662Z,3.80
2018-07-26T05:51:33.626Z,6.17
2018-07-26T05:54:11.170Z,4.70
2018-07-26T05:56:41.078Z,6.07
2018-07-26T05:59:11.012Z,8.70
2018-07-26T06:01:40.966Z,5.73
2018-07-26T06:04:11.994Z,3.70
2018-07-26T06:06:41.922Z,6.27
2018-07-26T06:09:12.566Z,4.17
2018-07-26T06:11:42.493Z,3.47
2018-07-26T06:14:12.030Z,2.90
2018-07-26T06:16:42.874Z,3.07
2018-07-26T06:19:12.594Z,3.10
2018-07-26T06:21:42.214Z,2.93
2018-07-26T06:24:13.726Z,3.17
2018-07-26T06:26:44.501Z,2.93
2018-07-26T06:29:22.669Z,3.87
2018-07-26T06:31:54.562Z,3.40
2018-07-26T06:34:28.050Z,3.20
2018-07-26T06:37:00.554Z,3.40
2018-07-26T06:39:59.918Z,2.60
2018-07-26T06:42:29.678Z,2.93
2018-07-26T06:45:00.522Z,3.20
2018-07-26T06:47:30.358Z,2.80
2018-07-26T06:50:03.167Z,3.10
2018-07-26T06:52:35.114Z,2.60
2018-07-26T06:55:10.962Z,3.17
2018-07-26T06:57:42.720Z,2.60
2018-07-26T07:00:12.622Z,2.90
2018-07-26T07:02:42.412Z,3.33
2018-07-26T07:05:13.246Z,2.80
2018-07-26T07:07:48.634Z,2.47
2018-07-26T07:10:20.234Z,3.47
2018-07-26T07:12:49.937Z,4.03
2018-07-26T07:15:19.798Z,3.40
2018-07-26T07:17:51.646Z,3.33
2018-07-26T07:20:22.451Z,2.40
2018-07-26T07:22:52.322Z,3.07
2018-07-26T07:25:23.172Z,2.60
2018-07-26T07:27:54.177Z,2.77
2018-07-26T07:30:23.610Z,2.57
2018-07-26T07:32:58.222Z,2.67
2018-07-26T07:35:27.968Z,2.33
2018-07-26T07:38:02.050Z,2.53
2018-07-26T07:40:33.054Z,3.40
2018-07-26T07:43:03.566Z,3.20
2018-07-26T07:45:49.649Z,3.17
2018-07-26T07:48:19.382Z,2.80
2018-07-26T07:50:49.174Z,2.70
2018-07-26T07:53:23.028Z,3.53
2018-07-26T07:55:54.434Z,3.33
2018-07-26T07:58:23.965Z,2.93
2018-07-26T08:00:53.897Z,3.10
2018-07-26T08:03:23.433Z,2.70
2018-07-26T08:06:20.054Z,2.97
2018-07-26T08:08:50.101Z,3.20
2018-07-26T08:11:20.859Z,3.20
2018-07-26T08:13:50.669Z,2.97
2018-07-26T08:16:21.557Z,3.20
2018-07-26T08:18:51.421Z,2.77
2018-07-26T08:21:21.205Z,2.80
2018-07-26T08:24:12.111Z,3.07
2018-07-26T08:26:41.877Z,3.20
2018-07-26T08:29:11.785Z,3.33
2018-07-26T08:32:00.677Z,2.70
2018-07-26T08:34:31.205Z,3.17
2018-07-26T08:37:12.989Z,3.20
2018-07-26T08:39:42.873Z,3.10
2018-07-26T08:43:20.645Z,3.03
2018-07-26T08:45:50.909Z,2.90
2018-07-26T08:48:21.653Z,2.60
2018-07-26T08:50:52.241Z,3.17
2018-07-26T08:53:23.065Z,3.40
2018-07-26T08:56:02.497Z,3.00
2018-07-26T08:58:32.293Z,3.03
2018-07-26T09:01:02.192Z,2.43
2018-07-26T09:03:31.761Z,2.50
2018-07-26T09:06:03.549Z,3.13
2018-07-26T09:08:34.193Z,3.13
2018-07-26T09:11:03.949Z,3.10
2018-07-26T09:13:33.895Z,3.00
2018-07-26T09:16:03.689Z,3.07
2018-07-26T09:18:33.277Z,3.13
2018-07-26T09:21:03.014Z,2.93
2018-07-26T09:23:32.593Z,3.20
2018-07-26T09:26:03.046Z,3.10
2018-07-26T09:28:32.817Z,3.27
2018-07-26T09:31:08.946Z,2.87
2018-07-26T09:33:38.611Z,3.43
2018-07-26T09:36:09.929Z,3.20
2018-07-26T09:38:48.805Z,3.00
2018-07-26T09:41:18.501Z,3.13
2018-07-26T09:43:49.277Z,2.47
2018-07-26T09:46:23.261Z,3.07
2018-07-26T09:48:53.053Z,3.23
2018-07-26T09:51:22.771Z,2.60
2018-07-26T09:53:53.493Z,2.70
2018-07-26T09:56:23.047Z,2.90
2018-07-26T09:58:57.313Z,2.87
2018-07-26T10:01:30.236Z,2.97
2018-07-26T10:04:02.925Z,3.10
2018-07-26T10:06:32.806Z,3.20
2018-07-26T10:09:08.330Z,2.70
2018-07-26T10:11:57.237Z,2.90
2018-07-26T10:14:27.034Z,2.50
2018-07-26T10:16:56.836Z,3.90
2018-07-26T10:19:27.965Z,2.63
2018-07-26T10:21:57.790Z,3.10
2018-07-26T10:24:35.250Z,2.87
2018-07-26T10:27:08.597Z,3.23
2018-07-26T10:29:38.479Z,2.80
2018-07-26T10:32:08.289Z,2.80
2018-07-26T10:34:37.829Z,3.17
2018-07-26T10:37:08.621Z,2.60
2018-07-26T10:39:38.437Z,2.80
2018-07-26T10:42:08.261Z,2.50
2018-07-26T10:44:43.469Z,2.80
2018-07-26T10:47:21.493Z,2.50
2018-07-26T10:49:57.580Z,2.43
2018-07-26T10:52:40.993Z,2.60
2018-07-26T10:55:11.597Z,2.60
2018-07-26T10:57:53.641Z,3.00
2018-07-26T11:00:32.849Z,2.83
2018-07-26T11:03:02.665Z,3.13
2018-07-26T11:05:35.937Z,2.77
2018-07-26T11:08:05.401Z,2.87
2018-07-26T11:10:40.857Z,2.97
2018-07-26T11:13:10.781Z,2.93
2018-07-26T11:15:42.381Z,3.73
2018-07-26T11:18:12.213Z,2.87
2018-07-26T11:20:42.137Z,2.50
2018-07-26T11:23:15.404Z,2.90
2018-07-26T11:25:46.397Z,3.00
2018-07-26T11:28:17.209Z,3.10
2018-07-26T11:30:47.141Z,2.93
2018-07-26T11:33:17.005Z,2.57
2018-07-26T11:35:47.888Z,3.33
2018-07-26T11:38:17.737Z,3.90
2018-07-26T11:40:48.589Z,3.00
2018-07-26T11:43:18.445Z,3.60
2018-07-26T11:45:50.257Z,3.13
2018-07-26T11:48:20.897Z,2.47
2018-07-26T11:50:50.733Z,2.83
2018-07-26T11:53:20.393Z,2.40
2018-07-26T11:55:51.161Z,3.00
2018-07-26T11:58:21.997Z,2.47
2018-07-26T12:00:51.745Z,2.80
2018-07-26T12:03:23.601Z,3.00
2018-07-26T12:05:55.442Z,2.93
2018-07-26T12:08:25.349Z,3.63
2018-07-26T12:10:57.267Z,2.60
2018-07-26T12:13:26.812Z,2.60
2018-07-26T12:15:56.332Z,2.23
2018-07-26T12:18:26.041Z,2.70
2018-07-26T12:20:55.916Z,2.90
2018-07-26T12:23:31.517Z,2.57
2018-07-26T12:26:01.118Z,2.63
2018-07-26T12:28:32.801Z,2.57
2018-07-26T12:31:02.612Z,3.00
2018-07-26T12:33:33.524Z,3.07
2018-07-26T12:36:08.473Z,2.90
2018-07-26T12:38:40.378Z,2.87
2018-07-26T12:41:09.961Z,2.40
2018-07-26T12:43:45.945Z,3.20
2018-07-26T12:46:15.776Z,2.60
2018-07-26T12:49:11.189Z,2.80
2018-07-26T12:51:44.469Z,2.57
2018-07-26T12:54:20.908Z,2.73
2018-07-26T12:56:58.848Z,2.43
2018-07-26T12:59:28.772Z,2.70
2018-07-26T13:02:03.260Z,2.80
2018-07-26T13:04:33.209Z,2.57
2018-07-26T13:07:08.666Z,2.33
2018-07-26T13:09:38.577Z,2.10
2018-07-26T13:12:10.349Z,2.57
2018-07-26T13:14:40.220Z,2.20
2018-07-26T13:17:10.039Z,2.40
2018-07-26T13:19:39.864Z,2.33
2018-07-26T13:22:10.454Z,2.03
2018-07-26T13:24:44.060Z,2.40
2018-07-26T13:27:13.929Z,2.60
2018-07-26T13:29:44.517Z,2.63
2018-07-26T13:32:14.300Z,2.50
2018-07-26T13:34:44.131Z,2.53
2018-07-26T13:37:17.460Z,2.50
2018-07-26T13:39:49.338Z,2.90
2018-07-26T13:42:19.228Z,2.80
2018-07-26T13:44:50.040Z,2.60
2018-07-26T13:47:20.122Z,2.60
2018-07-26T13:49:50.815Z,2.63
2018-07-26T13:52:21.653Z,2.00
2018-07-26T13:54:51.437Z,2.37
2018-07-26T13:57:22.046Z,2.17
2018-07-26T13:59:51.548Z,1.90
2018-07-26T14:02:21.004Z,2.43
2018-07-26T14:04:57.953Z,2.37
2018-07-26T14:07:34.912Z,2.33
2018-07-26T14:10:20.992Z,2.77
2018-07-26T14:12:54.968Z,2.50
2018-07-26T14:15:35.957Z,2.20
2018-07-26T14:18:07.524Z,2.50
2018-07-26T14:20:37.178Z,2.17
2018-07-26T14:23:18.784Z,2.70
2018-07-26T14:25:49.336Z,1.87
2018-07-26T14:28:20.120Z,2.10
2018-07-26T14:30:50.004Z,1.87
2018-07-26T14:33:21.664Z,2.50
2018-07-26T14:35:53.428Z,2.57
2018-07-26T14:38:24.060Z,2.30
2018-07-26T14:40:58.496Z,2.00
2018-07-26T14:43:39.185Z,2.00
2018-07-26T14:46:09.061Z,2.30
2018-07-26T14:48:38.897Z,2.50
2018-07-26T14:51:19.508Z,2.40
2018-07-26T14:53:52.116Z,2.47
2018-07-26T14:56:21.588Z,2.70
2018-07-26T14:59:10.216Z,2.47
2018-07-26T15:02:01.018Z,2.43
2018-07-26T15:04:31.724Z,2.23
2018-07-26T15:07:06.756Z,2.50
2018-07-26T15:09:36.829Z,2.50
2018-07-26T15:12:06.456Z,2.50
2018-07-26T15:14:38.200Z,2.97
2018-07-26T15:17:13.068Z,2.40
2018-07-26T15:19:46.108Z,2.87
2018-07-26T15:22:20.665Z,2.70
2018-07-26T15:25:07.996Z,2.30
2018-07-26T15:27:38.603Z,2.87
2018-07-26T15:30:13.729Z,4.70
2018-07-26T15:32:43.314Z,3.23
2018-07-26T15:35:15.096Z,2.97
2018-07-26T15:37:44.998Z,2.90
2018-07-26T15:40:14.650Z,3.00
2018-07-26T15:42:44.456Z,2.77
2018-07-26T15:45:17.815Z,3.40
2018-07-26T15:47:47.388Z,2.50
2018-07-26T15:50:19.950Z,2.70
2018-07-26T15:53:56.524Z,2.53
2018-07-26T15:56:26.417Z,2.90
2018-07-26T15:58:56.264Z,2.50
2018-07-26T16:01:32.204Z,2.70
2018-07-26T16:04:02.098Z,2.70
2018-07-26T16:06:36.308Z,2.90
2018-07-26T16:09:08.232Z,2.83
2018-07-26T16:11:38.028Z,3.20
2018-07-26T16:14:08.372Z,2.83
2018-07-26T16:16:38.304Z,2.53
2018-07-26T16:19:08.169Z,2.90
2018-07-26T16:21:39.985Z,2.57
2018-07-26T16:24:16.858Z,2.37
2018-07-26T16:26:52.516Z,2.67
2018-07-26T16:29:23.104Z,2.50
2018-07-26T16:31:53.576Z,2.97
2018-07-26T16:34:23.066Z,2.90
2018-07-26T16:36:52.856Z,2.83
2018-07-26T16:39:23.592Z,3.90
2018-07-26T16:41:59.119Z,2.70
2018-07-26T16:44:31.003Z,2.70
2018-07-26T16:47:02.632Z,3.20
2018-07-26T16:49:41.980Z,3.63
2018-07-26T16:52:13.754Z,3.30
2018-07-26T16:54:44.652Z,3.53
2018-07-26T16:57:21.452Z,3.67
2018-07-26T16:59:53.048Z,3.43
2018-07-26T17:02:23.572Z,3.60
2018-07-26T17:04:54.444Z,3.67
2018-07-26T17:07:24.097Z,3.70
2018-07-26T17:09:58.876Z,3.30
2018-07-26T17:12:28.806Z,4.03
2018-07-26T17:14:59.376Z,3.90
2018-07-26T17:17:29.996Z,3.70
2018-07-26T17:19:59.712Z,4.07
2018-07-26T17:22:29.319Z,3.43
2018-07-26T17:24:58.843Z,3.90
2018-07-26T17:27:28.416Z,3.83
2018-07-26T17:29:58.093Z,4.13
2018-07-26T17:32:27.717Z,4.33
2018-07-26T17:34:57.296Z,4.73
2018-07-26T17:37:27.052Z,4.77
2018-07-26T17:40:01.071Z,3.70
2018-07-26T17:42:30.888Z,4.00
2018-07-26T17:45:01.788Z,3.13
2018-07-26T17:47:32.924Z,3.93
2018-07-26T17:50:07.360Z,4.50
2018-07-26T17:52:37.216Z,4.57
2018-07-26T17:55:13.299Z,3.53
2018-07-26T17:57:44.064Z,3.70
2018-07-26T18:00:13.787Z,4.47
2018-07-26T18:02:43.575Z,3.70
2018-07-26T18:05:15.232Z,5.57
2018-07-26T18:07:46.052Z,3.90
2018-07-26T18:10:17.948Z,3.77
2018-07-26T18:12:47.589Z,4.13
2018-07-26T18:15:19.391Z,4.53
2018-07-26T18:17:49.279Z,4.60
2018-07-26T18:20:18.955Z,4.80
2018-07-26T18:22:54.176Z,4.60
2018-07-26T18:25:24.274Z,4.50
2018-07-26T18:27:54.197Z,5.07
2018-07-26T18:30:25.052Z,5.20
2018-07-26T18:32:56.164Z,4.63
2018-07-26T18:35:26.995Z,4.57
2018-07-26T18:37:56.675Z,5.00
2018-07-26T18:40:27.444Z,6.00
2018-07-26T18:42:58.292Z,5.20
2018-07-26T18:45:28.884Z,5.10
2018-07-26T18:47:59.627Z,5.30
2018-07-26T18:50:30.275Z,4.90
2018-07-26T18:53:13.288Z,5.00
2018-07-26T18:55:48.534Z,5.60
2018-07-26T18:58:18.460Z,5.17
2018-07-26T19:00:49.405Z,6.30
2018-07-26T19:03:20.571Z,5.30
2018-07-26T19:05:52.175Z,5.00
2018-07-26T19:08:21.735Z,5.67
2018-07-26T19:13:03.751Z,6.33
2018-07-26T19:15:40.504Z,6.10
2018-07-26T19:18:13.239Z,5.57
2018-07-26T19:20:44.707Z,6.10
2018-07-26T19:23:17.427Z,5.90
2018-07-26T19:25:47.474Z,5.60
2018-07-26T19:28:18.267Z,5.40
2018-07-26T19:30:48.728Z,5.63
2018-07-26T19:33:18.431Z,5.20
2018-07-26T19:35:48.249Z,6.37
2018-07-26T19:38:18.959Z,6.93
2018-07-26T19:40:49.964Z,5.53
2018-07-26T19:43:20.251Z,7.00
2018-07-26T19:45:56.364Z,6.27
2018-07-26T19:48:26.375Z,6.50
2018-07-26T19:51:00.055Z,5.57
2018-07-26T19:53:30.075Z,6.03
2018-07-26T19:56:01.135Z,6.20
2018-07-26T19:58:35.199Z,6.47
2018-07-26T20:03:13.183Z,6.47
2018-07-26T20:05:44.667Z,7.00
2018-07-26T20:08:19.411Z,6.33
2018-07-26T20:10:54.792Z,6.70
2018-07-26T20:13:24.967Z,6.70
2018-07-26T20:15:54.637Z,6.03
2018-07-26T20:18:24.299Z,6.70
2018-07-26T20:20:58.215Z,5.83
2018-07-26T20:23:28.027Z,5.40
2018-07-26T20:25:57.647Z,6.53
2018-07-26T20:28:27.262Z,5.50
2018-07-26T20:31:08.535Z,6.20
2018-07-26T20:33:39.503Z,6.40
2018-07-26T20:36:10.183Z,6.43
2018-07-26T20:38:42.065Z,5.97
2018-07-26T20:41:12.110Z,6.17
2018-07-26T20:43:41.847Z,7.37
2018-07-26T20:46:12.470Z,6.67
2018-07-26T20:48:42.420Z,6.30
2018-07-26T20:51:13.225Z,6.40
2018-07-26T20:53:44.316Z,6.57
2018-07-26T20:56:14.443Z,6.50
2018-07-26T20:58:45.107Z,7.17
2018-07-26T21:01:19.851Z,6.63
2018-07-26T21:03:54.675Z,7.90
2018-07-26T21:06:24.753Z,6.60
2018-07-26T21:08:55.531Z,6.20
2018-07-26T21:11:25.701Z,6.70
2018-07-26T21:13:56.059Z,6.80
2018-07-26T21:16:27.583Z,5.97
2018-07-26T21:18:58.663Z,7.83
2018-07-26T21:21:29.687Z,5.93
2018-07-26T21:24:04.329Z,6.00
2018-07-26T21:26:39.527Z,6.00
2018-07-26T21:29:10.503Z,6.00
2018-07-26T21:31:40.275Z,6.33
2018-07-26T21:34:11.267Z,6.03
2018-07-26T21:36:43.515Z,6.30
2018-07-26T21:39:19.487Z,6.40
2018-07-26T21:41:53.507Z,6.67
2018-07-26T21:44:24.670Z,6.50
2018-07-26T21:46:57.947Z,6.30
2018-07-26T21:49:27.614Z,6.20
2018-07-26T21:51:59.429Z,6.43
2018-07-26T21:54:29.692Z,6.77
2018-07-26T21:57:05.688Z,7.10
2018-07-26T21:59:37.060Z,6.43
2018-07-26T22:02:07.260Z,6.00
2018-07-26T22:04:39.707Z,6.97
2018-07-26T22:07:11.708Z,6.70
2018-07-26T22:09:47.540Z,6.10
2018-07-26T22:12:18.164Z,5.20
2018-07-26T22:14:48.819Z,6.57
2018-07-26T22:17:19.527Z,6.60
2018-07-26T22:19:55.079Z,6.07
2018-07-26T22:22:26.163Z,6.13
2018-07-26T22:24:57.036Z,6.70
2018-07-26T22:27:27.703Z,6.23
2018-07-26T22:29:57.711Z,6.73
2018-07-26T22:32:27.447Z,6.77
2018-07-26T22:34:58.427Z,7.30
2018-07-26T22:37:34.111Z,6.13
2018-07-26T22:40:05.183Z,6.80
2018-07-26T22:42:39.275Z,6.70
2018-07-26T22:45:15.315Z,6.50
2018-07-26T22:47:44.991Z,6.57
2018-07-26T22:50:15.855Z,6.50
2018-07-26T22:52:45.706Z,5.93
2018-07-26T22:55:17.415Z,7.20
2018-07-26T22:57:47.019Z,6.77
2018-07-26T23:00:17.954Z,6.23
2018-07-26T23:02:47.902Z,7.37
2018-07-26T23:05:17.499Z,7.53
2018-07-26T23:07:47.875Z,6.90
2018-07-26T23:10:17.899Z,5.93
2018-07-26T23:12:49.078Z,6.20
2018-07-26T23:15:18.798Z,6.93
2018-07-26T23:17:53.895Z,6.57
2018-07-26T23:20:23.547Z,6.90
2018-07-26T23:22:54.407Z,7.43
2018-07-26T23:25:26.106Z,7.47
2018-07-26T23:27:56.126Z,6.67
2018-07-26T23:30:27.078Z,7.13
2018-07-26T23:33:02.587Z,7.90
2018-07-26T23:35:35.786Z,6.50
2018-07-26T23:38:05.510Z,7.23
2018-07-26T23:40:36.462Z,7.13
2018-07-26T23:43:06.547Z,7.10
2018-07-26T23:45:38.118Z,7.70
2018-07-26T23:48:12.106Z,7.67
2018-07-26T23:50:41.730Z,7.10
2018-07-26T23:53:11.548Z,7.57
2018-07-26T23:55:42.318Z,7.97
2018-07-26T23:58:18.050Z,7.67
